Time;durP1;ratioP1;P1;durP2;ratioP2;P2;SDS_P1;SDS_P2;PMS_P1;PMS_P2;Temp;Humidity;BMP_temperature;BMP_pressure;BME280_temperature;BME280_humidity;BME280_pressure;Samples;Min_cycle;Max_cycle;Signal;HPM_P1;HPM_P2
2022/04/06 00:02:05;;;;;;;48.80;21.08;;;8.10;99.90;;;;;;5030168;28;20045;-88
2022/04/06 00:04:33;;;;;;;49.00;18.30;;;8.10;99.90;;;;;;5002703;28;20058;-87
2022/04/06 00:06:59;;;;;;;59.05;20.38;;;8.10;99.90;;;;;;5012747;28;20483;-87
2022/04/06 00:09:25;;;;;;;45.60;18.40;;;8.10;99.90;;;;;;5013484;28;20053;-88
2022/04/06 00:11:51;;;;;;;50.30;18.05;;;8.10;99.90;;;;;;4995072;28;20065;-87
2022/04/06 00:14:17;;;;;;;53.05;18.25;;;8.10;99.90;;;;;;5027199;28;20045;-87
2022/04/06 00:16:44;;;;;;;45.03;17.77;;;8.10;99.90;;;;;;5016383;28;20077;-87
2022/04/06 00:19:10;;;;;;;48.88;17.77;;;8.10;99.90;;;;;;5017292;28;20041;-91
2022/04/06 00:21:35;;;;;;;43.50;16.33;;;8.10;99.90;;;;;;5016992;28;20046;-88
2022/04/06 00:24:06;;;;;;;54.47;16.98;;;8.10;99.90;;;;;;4987264;28;20084;-89
2022/04/06 00:26:33;;;;;;;50.10;17.17;;;8.10;99.90;;;;;;5031444;28;20529;-88
2022/04/06 00:28:59;;;;;;;46.30;17.02;;;8.10;99.90;;;;;;5015222;28;20041;-88
2022/04/06 00:31:27;;;;;;;47.53;16.35;;;8.10;99.90;;;;;;5023300;28;20057;-90
2022/04/06 00:33:53;;;;;;;42.72;15.35;;;8.10;99.90;;;;;;5032664;28;20128;-88
2022/04/06 00:36:19;;;;;;;50.00;16.45;;;8.10;99.90;;;;;;5012016;28;20133;-87
2022/04/06 00:38:45;;;;;;;36.08;13.68;;;8.10;99.90;;;;;;5017273;28;20128;-88
2022/04/06 00:41:18;;;;;;;38.78;16.48;;;8.10;99.90;;;;;;5015198;28;20049;-93
2022/04/06 00:44:07;;;;;;;41.00;15.80;;;8.20;99.90;;;;;;5014607;28;20034;-89
2022/04/06 00:46:40;;;;;;;40.97;15.32;;;8.20;99.90;;;;;;5029741;28;20046;-89
2022/04/06 00:49:11;;;;;;;42.90;14.30;;;8.10;99.90;;;;;;5018990;28;20132;-89
2022/04/06 00:52:06;;;;;;;35.78;14.02;;;8.20;99.90;;;;;;5015177;28;20041;-88
2022/04/06 00:54:35;;;;;;;34.25;12.68;;;8.10;99.90;;;;;;5014046;28;20064;-88
2022/04/06 00:57:06;;;;;;;34.85;11.18;;;8.20;99.90;;;;;;5030518;28;20037;-87
2022/04/06 00:59:35;;;;;;;39.10;14.07;;;8.10;99.90;;;;;;5026830;28;20248;-89
2022/04/06 01:02:08;;;;;;;34.38;14.20;;;8.20;99.90;;;;;;5032790;28;20046;-87
2022/04/06 01:04:36;;;;;;;32.90;13.18;;;8.20;99.90;;;;;;5000098;28;20049;-89
2022/04/06 01:07:02;;;;;;;31.00;13.77;;;8.10;99.90;;;;;;5033918;28;20056;-88
2022/04/06 01:09:29;;;;;;;35.88;14.20;;;8.20;99.90;;;;;;5032384;28;20049;-88
2022/04/06 01:11:57;;;;;;;39.15;14.95;;;8.10;99.90;;;;;;5033065;28;20045;-88
2022/04/06 01:14:23;;;;;;;30.17;14.77;;;8.20;99.90;;;;;;5015889;28;20128;-88
2022/04/06 01:16:58;;;;;;;35.33;16.30;;;8.20;99.90;;;;;;5011465;28;20761;-88
2022/04/06 01:19:36;;;;;;;32.60;16.63;;;8.20;99.90;;;;;;5013633;28;20049;-87
2022/04/06 01:22:38;;;;;;;35.53;13.73;;;8.20;99.90;;;;;;5016596;28;20103;-89
2022/04/06 01:25:08;;;;;;;34.42;16.85;;;8.20;99.90;;;;;;5014717;28;20498;-87
2022/04/06 01:27:36;;;;;;;38.17;16.65;;;8.20;99.90;;;;;;5015670;28;20076;-86
2022/04/06 01:30:06;;;;;;;37.45;15.73;;;8.20;99.90;;;;;;5011927;28;20486;-88
2022/04/06 01:32:36;;;;;;;36.33;17.13;;;8.20;99.90;;;;;;5032106;28;20043;-87
2022/04/06 01:35:06;;;;;;;37.35;16.40;;;8.20;99.90;;;;;;5006010;28;20132;-87
2022/04/06 01:37:37;;;;;;;33.47;16.45;;;8.20;99.90;;;;;;5031184;28;20052;-86
2022/04/06 01:40:04;;;;;;;42.05;17.08;;;8.20;99.90;;;;;;5012723;28;20044;-88
2022/04/06 01:42:36;;;;;;;35.33;17.52;;;8.20;99.90;;;;;;5015605;28;20088;-87
2022/04/06 01:45:03;;;;;;;36.58;16.38;;;8.30;99.90;;;;;;5029422;28;20041;-87
2022/04/06 01:47:28;;;;;;;42.15;17.90;;;8.20;99.90;;;;;;5013405;28;20053;-90
2022/04/06 01:52:38;;;;;;;37.63;16.35;;;8.20;99.90;;;;;;5016473;28;20057;-85
2022/04/06 01:55:07;;;;;;;36.65;16.40;;;8.20;99.90;;;;;;4999312;28;20092;-87
2022/04/06 01:57:34;;;;;;;29.48;13.85;;;8.20;99.90;;;;;;5013246;28;20037;-86
2022/04/06 02:00:00;;;;;;;33.33;15.20;;;8.30;99.90;;;;;;5031384;28;20460;-87
2022/04/06 02:02:33;;;;;;;28.90;12.02;;;8.20;99.90;;;;;;5014110;28;20119;-86
2022/04/06 02:04:59;;;;;;;34.50;13.77;;;8.20;99.90;;;;;;5013207;28;20053;-86
2022/04/06 02:07:26;;;;;;;31.00;14.15;;;8.20;99.90;;;;;;4997165;28;20441;-87
2022/04/06 02:09:52;;;;;;;30.60;11.88;;;8.20;99.90;;;;;;4998319;28;20041;-86
2022/04/06 02:12:17;;;;;;;31.33;13.38;;;8.20;99.90;;;;;;4974981;28;20042;-91
2022/04/06 02:14:43;;;;;;;26.60;11.38;;;8.20;99.90;;;;;;4998314;28;20073;-87
2022/04/06 02:17:12;;;;;;;26.27;11.07;;;8.20;99.90;;;;;;4998626;28;20143;-88
2022/04/06 02:19:39;;;;;;;30.95;11.63;;;8.20;99.90;;;;;;4997878;28;20439;-86
2022/04/06 02:22:06;;;;;;;24.80;11.95;;;8.20;99.90;;;;;;4996822;28;20041;-87
2022/04/06 02:24:32;;;;;;;27.05;10.60;;;8.20;99.90;;;;;;5012865;28;20041;-88
2022/04/06 02:26:58;;;;;;;24.17;10.95;;;8.20;99.90;;;;;;4995675;28;20037;-86
2022/04/06 02:29:24;;;;;;;30.42;11.60;;;8.20;99.90;;;;;;5030993;28;20052;-85
2022/04/06 02:31:50;;;;;;;22.52;9.05;;;8.20;99.90;;;;;;4993990;28;20148;-85
2022/04/06 02:34:15;;;;;;;23.05;8.65;;;8.20;99.90;;;;;;4997423;28;20128;-85
2022/04/06 02:36:41;;;;;;;26.77;10.10;;;8.10;99.90;;;;;;4995804;28;20133;-85
2022/04/06 02:39:07;;;;;;;24.42;8.85;;;8.20;99.90;;;;;;5030160;28;20049;-86
2022/04/06 02:41:33;;;;;;;19.10;7.72;;;8.20;99.90;;;;;;4995659;28;20047;-86
2022/04/06 02:43:58;;;;;;;24.85;7.85;;;8.20;99.90;;;;;;5020203;28;20054;-86
2022/04/06 02:46:24;;;;;;;17.77;8.18;;;8.20;99.90;;;;;;5011210;28;20042;-86
2022/04/06 02:48:50;;;;;;;22.73;8.00;;;8.10;99.90;;;;;;5014390;28;20049;-86
2022/04/06 02:51:16;;;;;;;18.50;8.18;;;8.10;99.90;;;;;;5031177;28;20060;-85
2022/04/06 02:53:44;;;;;;;17.05;8.18;;;8.10;99.90;;;;;;5011271;28;20506;-89
2022/04/06 02:56:12;;;;;;;20.95;8.15;;;8.10;99.90;;;;;;5011305;28;20049;-87
2022/04/06 02:58:38;;;;;;;22.85;8.23;;;8.00;99.90;;;;;;5010177;28;20048;-86
2022/04/06 03:01:06;;;;;;;19.30;8.23;;;8.10;99.90;;;;;;5013117;28;20033;-86
2022/04/06 03:03:37;;;;;;;23.02;8.40;;;8.10;99.90;;;;;;4997114;28;20383;-87
2022/04/06 03:06:06;;;;;;;15.60;7.20;;;8.10;99.90;;;;;;5012939;28;20060;-86
2022/04/06 03:08:32;;;;;;;19.33;7.65;;;8.10;99.90;;;;;;5008251;28;20041;-87
2022/04/06 03:10:59;;;;;;;14.93;6.50;;;8.10;99.90;;;;;;5024119;28;20053;-86
2022/04/06 03:13:34;;;;;;;20.05;8.75;;;8.10;99.90;;;;;;5013219;28;20077;-89
2022/04/06 03:16:00;;;;;;;27.60;8.07;;;8.10;99.90;;;;;;5013779;28;20063;-86
2022/04/06 03:18:25;;;;;;;23.05;7.90;;;8.10;99.90;;;;;;5013622;28;20581;-89
2022/04/06 03:20:51;;;;;;;18.13;7.32;;;8.10;99.90;;;;;;5027695;28;20038;-86
2022/04/06 03:23:18;;;;;;;24.05;8.57;;;8.10;99.90;;;;;;5014185;28;20056;-86
2022/04/06 03:25:46;;;;;;;24.85;8.80;;;8.10;99.90;;;;;;5030115;28;20045;-85
2022/04/06 03:28:17;;;;;;;34.08;8.98;;;8.10;99.90;;;;;;5014056;28;20041;-85
2022/04/06 03:30:45;;;;;;;26.65;9.98;;;8.10;99.90;;;;;;5026831;28;20042;-85
2022/04/06 03:33:20;;;;;;;21.77;9.32;;;8.10;99.90;;;;;;5013591;28;20124;-86
2022/04/06 03:35:49;;;;;;;25.42;8.65;;;8.10;99.90;;;;;;5030507;28;20052;-85
2022/04/06 03:38:15;;;;;;;34.22;11.35;;;8.20;99.90;;;;;;5025078;28;20085;-85
2022/04/06 03:40:40;;;;;;;26.13;9.98;;;8.20;99.90;;;;;;4995506;28;20100;-85
2022/04/06 03:43:06;;;;;;;26.25;10.40;;;8.20;99.90;;;;;;5014164;28;20107;-85
2022/04/06 03:45:32;;;;;;;29.55;11.18;;;8.20;99.90;;;;;;4994264;28;20077;-85
2022/04/06 03:47:58;;;;;;;31.38;10.88;;;8.20;99.90;;;;;;5030005;28;20064;-85
2022/04/06 03:50:26;;;;;;;35.20;10.38;;;8.20;99.90;;;;;;5017560;28;20124;-88
2022/04/06 03:52:56;;;;;;;36.70;11.20;;;8.20;99.90;;;;;;5034260;28;20049;-87
2022/04/06 03:55:27;;;;;;;42.00;11.20;;;8.10;99.90;;;;;;5034007;28;20046;-88
2022/04/06 03:57:52;;;;;;;31.67;11.20;;;8.20;99.90;;;;;;5017628;28;20049;-86
2022/04/06 04:00:18;;;;;;;33.58;12.00;;;8.20;99.90;;;;;;5016591;28;20136;-86
2022/04/06 04:02:46;;;;;;;35.47;11.32;;;8.20;99.90;;;;;;4995097;28;20152;-86
2022/04/06 04:05:15;;;;;;;33.63;11.75;;;8.30;99.90;;;;;;5016881;28;20061;-85
2022/04/06 04:07:46;;;;;;;37.70;13.00;;;8.30;99.90;;;;;;5017112;28;20136;-85
2022/04/06 04:10:19;;;;;;;37.55;12.15;;;8.30;99.90;;;;;;5016116;28;20124;-85
2022/04/06 04:12:45;;;;;;;35.08;12.80;;;8.30;99.90;;;;;;5031075;28;20045;-87
2022/04/06 04:15:16;;;;;;;33.25;12.63;;;8.30;99.90;;;;;;5016424;28;20068;-86
2022/04/06 04:17:44;;;;;;;32.53;11.70;;;8.30;99.90;;;;;;5016452;28;20081;-86
2022/04/06 04:20:10;;;;;;;42.80;13.93;;;8.40;99.90;;;;;;4997951;28;20593;-86
2022/04/06 04:22:36;;;;;;;32.80;13.80;;;8.40;99.90;;;;;;5013587;28;20041;-86
2022/04/06 04:25:02;;;;;;;28.88;11.55;;;8.40;99.90;;;;;;5000914;28;20049;-86
2022/04/06 04:27:29;;;;;;;30.80;12.38;;;8.40;99.90;;;;;;5017074;28;20080;-85
2022/04/06 04:29:57;;;;;;;30.83;12.18;;;8.40;99.90;;;;;;4997241;28;20092;-87
2022/04/06 04:32:26;;;;;;;26.10;10.85;;;8.40;99.90;;;;;;5014634;28;20045;-87
2022/04/06 04:35:06;;;;;;;31.52;11.15;;;8.40;99.90;;;;;;5017216;28;20153;-87
2022/04/06 04:37:37;;;;;;;29.38;11.52;;;8.30;99.90;;;;;;5032771;28;20383;-87
2022/04/06 04:40:06;;;;;;;30.95;11.18;;;8.20;99.90;;;;;;5005531;28;20046;-87
2022/04/06 04:42:34;;;;;;;24.65;9.82;;;8.20;99.90;;;;;;5014710;28;20049;-87
2022/04/06 04:45:00;;;;;;;27.88;9.77;;;8.20;99.90;;;;;;5016515;28;20511;-86
2022/04/06 04:47:26;;;;;;;30.63;10.18;;;8.20;99.90;;;;;;5033376;28;20038;-88
2022/04/06 04:50:19;;;;;;;25.10;9.57;;;8.10;99.90;;;;;;5006323;28;20046;-88
2022/04/06 04:52:45;;;;;;;26.20;8.75;;;8.10;99.90;;;;;;5013389;28;20092;-86
2022/04/06 04:55:11;;;;;;;23.95;7.75;;;8.10;99.90;;;;;;5025451;28;20049;-87
2022/04/06 04:57:36;;;;;;;23.90;8.80;;;8.10;99.90;;;;;;4998119;28;20406;-86
2022/04/06 05:00:07;;;;;;;28.23;8.93;;;8.10;99.90;;;;;;4992583;28;20172;-85
2022/04/06 05:02:48;;;;;;;24.85;8.48;;;8.00;99.90;;;;;;5032694;28;20095;-87
2022/04/06 05:05:25;;;;;;;25.48;7.93;;;8.00;99.90;;;;;;4982809;28;20062;-90
2022/04/06 05:07:57;;;;;;;20.80;8.02;;;8.00;99.90;;;;;;4998367;28;20081;-89
2022/04/06 05:10:23;;;;;;;14.73;6.15;;;8.00;99.90;;;;;;5013623;28;20049;-90
2022/04/06 05:13:17;;;;;;;18.27;6.22;;;7.90;99.90;;;;;;5012551;28;20134;-87
2022/04/06 05:15:35;;;;;;;21.15;6.75;;;7.90;99.90;;;;;;5010402;28;20054;-86
2022/04/06 05:18:00;;;;;;;18.08;7.18;;;7.90;99.90;;;;;;5012834;28;20056;-87
2022/04/06 05:20:27;;;;;;;20.83;6.15;;;7.80;99.90;;;;;;5029188;28;20523;-86
2022/04/06 05:22:55;;;;;;;25.48;6.97;;;7.80;99.90;;;;;;4996250;28;20049;-88
2022/04/06 05:25:21;;;;;;;19.33;5.53;;;7.80;99.90;;;;;;5012434;28;20056;-89
2022/04/06 05:27:55;;;;;;;18.08;5.22;;;7.80;99.90;;;;;;5011146;28;20122;-90
2022/04/06 05:30:23;;;;;;;17.52;5.10;;;7.80;99.90;;;;;;4998667;28;20158;-87
2022/04/06 05:32:51;;;;;;;19.80;5.20;;;7.70;99.90;;;;;;5008456;28;20053;-87
2022/04/06 05:35:18;;;;;;;27.13;5.72;;;7.70;99.90;;;;;;5025704;28;20152;-87
2022/04/06 05:37:45;;;;;;;17.00;5.30;;;7.70;99.90;;;;;;5014753;28;20072;-88
2022/04/06 05:40:13;;;;;;;20.15;5.32;;;7.80;99.90;;;;;;4998592;28;20054;-86
2022/04/06 05:42:39;;;;;;;14.52;4.60;;;7.70;99.90;;;;;;5025683;28;20053;-85
2022/04/06 05:45:09;;;;;;;25.75;6.20;;;7.80;99.90;;;;;;5023246;28;20080;-85
2022/04/06 05:47:35;;;;;;;10.23;4.03;;;7.70;99.90;;;;;;4997141;28;20038;-86
2022/04/06 05:50:03;;;;;;;18.10;5.22;;;7.80;99.90;;;;;;5030170;28;20037;-88
2022/04/06 05:52:29;;;;;;;15.52;4.45;;;7.80;99.90;;;;;;5004841;28;20041;-89
2022/04/06 05:54:55;;;;;;;18.83;5.80;;;7.80;99.90;;;;;;5031148;28;20045;-94
2022/04/06 05:57:47;;;;;;;18.50;5.28;;;7.80;99.90;;;;;;5020749;28;20060;-92
2022/04/06 06:00:26;;;;;;;19.30;5.63;;;7.80;99.90;;;;;;4998651;28;20042;-90
2022/04/06 06:02:55;;;;;;;13.90;4.57;;;7.80;99.90;;;;;;5010588;28;20100;-91
2022/04/06 06:05:26;;;;;;;21.55;5.10;;;7.80;99.90;;;;;;4983988;28;20050;-90
2022/04/06 06:08:05;;;;;;;16.40;5.07;;;7.80;99.90;;;;;;5033689;28;20049;-90
2022/04/06 06:10:55;;;;;;;23.40;6.40;;;7.70;99.90;;;;;;5000037;28;20056;-91
2022/04/06 06:13:28;;;;;;;15.02;3.83;;;7.80;99.90;;;;;;5000361;28;20045;-91
2022/04/06 06:16:08;;;;;;;;;;;;;;;;;;;;;
2022/04/06 06:18:58;;;;;;;15.02;4.95;;;7.80;99.90;;;;;;5031621;28;20513;-92
2022/04/06 06:21:36;;;;;;;15.02;4.75;;;7.80;99.90;;;;;;5003360;28;20041;-88
2022/04/06 06:24:20;;;;;;;;;;;;;;;;;;;;;
2022/04/06 06:26:57;;;;;;;13.85;4.75;;;7.70;99.90;;;;;;5015712;28;20045;-88
2022/04/06 06:29:54;;;;;;;15.90;5.03;;;7.80;99.90;;;;;;4994053;28;20075;-87
2022/04/06 06:32:31;;;;;;;11.93;4.43;;;7.80;99.90;;;;;;5019159;28;20546;-88
2022/04/06 06:35:02;;;;;;;14.98;5.22;;;7.80;99.90;;;;;;5003865;28;20130;-88
2022/04/06 06:37:28;;;;;;;18.85;4.55;;;7.80;99.90;;;;;;5011710;28;20076;-84
2022/04/06 06:40:26;;;;;;;17.75;4.80;;;7.80;99.90;;;;;;4996006;28;20072;-90
2022/04/06 06:42:55;;;;;;;12.60;4.72;;;7.80;99.90;;;;;;5003670;28;20049;-88
2022/04/06 06:45:35;;;;;;;11.77;4.50;;;7.80;99.90;;;;;;5011663;28;20037;-88
2022/04/06 06:48:37;;;;;;;16.95;5.07;;;7.80;99.90;;;;;;4990209;28;20146;-89
2022/04/06 06:51:18;;;;;;;;;;;;;;;;;;;;;
2022/04/06 06:54:01;;;;;;;21.27;4.80;;;7.80;99.90;;;;;;5028664;28;20045;-88
2022/04/06 06:56:48;;;;;;;14.70;4.85;;;7.80;99.90;;;;;;5018022;28;20510;-88
2022/04/06 06:59:24;;;;;;;14.18;4.55;;;7.80;99.90;;;;;;4997890;28;20041;-87
2022/04/06 07:02:06;;;;;;;11.05;4.65;;;7.90;99.90;;;;;;4995780;28;20048;-88
2022/04/06 07:04:47;;;;;;;;;;;;;;;;;;;;;
2022/04/06 07:07:17;;;;;;;15.45;4.45;;;7.80;99.90;;;;;;5025293;28;20487;-87
2022/04/06 07:10:01;;;;;;;;;;;;;;;;;;;;;
2022/04/06 07:12:27;;;;;;;14.13;4.63;;;7.90;99.90;;;;;;5001176;28;20103;-87
2022/04/06 07:14:56;;;;;;;19.88;5.03;;;7.90;99.90;;;;;;4993649;28;20053;-87
2022/04/06 07:17:27;;;;;;;17.02;4.30;;;7.80;99.90;;;;;;4997492;28;20049;-88
2022/04/06 07:19:56;;;;;;;20.40;4.90;;;7.90;99.90;;;;;;4983885;28;20124;-85
2022/04/06 07:22:26;;;;;;;20.38;4.68;;;7.90;99.90;;;;;;5029686;28;20442;-84
2022/04/06 07:32:36;;;;;;;;;;;;;;;;;;;;;
2022/04/06 07:35:19;;;;;;;19.50;4.65;;;7.80;99.90;;;;;;5009317;28;20065;-90
2022/04/06 07:37:57;;;;;;;24.17;5.35;;;7.70;99.90;;;;;;5009637;28;20124;-87
2022/04/06 07:40:36;;;;;;;;;;;;;;;;;;;;;
2022/04/06 07:43:04;;;;;;;16.40;5.38;;;7.80;99.90;;;;;;5028953;28;20057;-88
2022/04/06 07:45:47;;;;;;;21.17;5.03;;;7.80;99.90;;;;;;5013716;28;20054;-89
2022/04/06 07:49:06;;;;;;;;;;;;;;;;;;;;;
2022/04/06 07:51:47;;;;;;;18.73;5.65;;;7.80;99.90;;;;;;5028609;28;20524;-89
2022/04/06 07:54:16;;;;;;;24.20;5.55;;;7.90;99.90;;;;;;5001781;28;20046;-90
2022/04/06 07:56:47;;;;;;;20.48;5.88;;;7.90;99.90;;;;;;5015044;28;20041;-88
2022/04/06 07:59:15;;;;;;;25.40;5.82;;;8.00;99.90;;;;;;5012444;28;20046;-86
2022/04/06 08:01:44;;;;;;;18.95;5.35;;;8.00;99.90;;;;;;4994381;28;20124;-85
2022/04/06 08:04:10;;;;;;;20.67;6.30;;;8.10;99.90;;;;;;5025078;28;20133;-85
2022/04/06 08:06:35;;;;;;;16.70;5.22;;;8.10;99.90;;;;;;5015939;28;20053;-85
2022/04/06 08:09:06;;;;;;;25.55;6.22;;;8.10;99.90;;;;;;4987906;28;20041;-87
2022/04/06 08:11:56;;;;;;;21.27;6.00;;;8.10;99.90;;;;;;5008797;28;20076;-88
2022/04/06 08:14:33;;;;;;;21.05;6.35;;;8.10;99.90;;;;;;4989164;28;20053;-88
2022/04/06 08:17:25;;;;;;;16.25;5.95;;;8.00;99.90;;;;;;5004715;28;20144;-89
2022/04/06 08:20:44;;;;;;;;;;;;;;;;;;;;;
2022/04/06 08:23:36;;;;;;;14.32;5.38;;;8.10;99.90;;;;;;5019285;28;20073;-90
2022/04/06 08:26:05;;;;;;;26.33;6.80;;;8.20;99.90;;;;;;5019714;28;20050;-88
2022/04/06 08:31:39;;;;;;;24.08;7.30;;;8.20;99.90;;;;;;5017576;28;20049;-87
2022/04/06 08:34:15;;;;;;;14.55;5.70;;;8.30;99.90;;;;;;4982490;28;20061;-89
2022/04/06 08:37:08;;;;;;;23.02;7.07;;;8.30;99.90;;;;;;5013604;28;20105;-88
2022/04/06 08:40:05;;;;;;;19.90;7.75;;;8.30;99.90;;;;;;4997131;28;20037;-87
2022/04/06 08:43:16;;;;;;;21.70;7.47;;;8.30;99.90;;;;;;5003889;28;20739;-88
2022/04/06 08:45:48;;;;;;;21.45;8.57;;;8.30;99.90;;;;;;5053489;28;20046;-88
2022/04/06 08:48:16;;;;;;;17.13;7.13;;;8.30;99.90;;;;;;5032073;28;20054;-84
2022/04/06 08:50:49;;;;;;;19.45;7.32;;;8.40;99.90;;;;;;5034424;28;20049;-83
2022/04/06 08:53:25;;;;;;;16.85;7.28;;;8.40;99.90;;;;;;5010469;28;20140;-90
2022/04/06 08:55:54;;;;;;;25.05;8.90;;;8.40;99.90;;;;;;5029631;28;20055;-87
2022/04/06 08:58:45;;;;;;;20.15;7.15;;;8.30;99.90;;;;;;5004772;28;20058;-88
2022/04/06 09:01:28;;;;;;;20.17;7.50;;;8.30;99.90;;;;;;5006679;28;20148;-86
2022/04/06 09:04:02;;;;;;;15.98;5.85;;;8.30;99.90;;;;;;5014534;28;20534;-87
2022/04/06 09:06:32;;;;;;;22.27;6.22;;;8.20;99.90;;;;;;4990011;28;20141;-88
2022/04/06 09:08:58;;;;;;;20.17;7.15;;;8.30;99.90;;;;;;5013352;28;20073;-86
2022/04/06 09:11:34;;;;;;;;;;;;;;;;;;;;;
2022/04/06 09:14:15;;;;;;;11.30;4.10;;;8.40;99.90;;;;;;5032996;28;20053;-88
2022/04/06 09:17:04;;;;;;;22.45;6.75;;;8.50;99.90;;;;;;5010905;28;20099;-89
2022/04/06 09:20:04;;;;;;;13.57;6.80;;;8.60;99.90;;;;;;5030350;28;20754;-89
2022/04/06 09:22:49;;;;;;;14.45;5.50;;;8.80;99.90;;;;;;5030594;28;20111;-86
2022/04/06 09:25:56;;;;;;;;;;;;;;;;;;;;;
2022/04/06 09:28:28;;;;;;;17.30;5.00;;;9.10;99.90;;;;;;5027138;28;20064;-87
2022/04/06 09:31:08;;;;;;;16.27;6.63;;;9.10;99.90;;;;;;4995629;28;20081;-88
2022/04/06 09:33:59;;;;;;;13.65;5.70;;;9.10;99.90;;;;;;5013601;28;20044;-86
2022/04/06 09:36:32;;;;;;;14.60;4.40;;;9.00;99.90;;;;;;5025271;28;20049;-88
2022/04/06 09:39:06;;;;;;;15.13;4.40;;;9.00;99.90;;;;;;5011473;28;20065;-88
2022/04/06 09:42:25;;;;;;;14.57;4.15;;;9.00;99.90;;;;;;4998090;28;20053;-87
2022/04/06 09:48:01;;;;;;;14.32;5.13;;;8.90;99.90;;;;;;5025142;28;20037;-87
2022/04/06 09:50:27;;;;;;;10.80;4.97;;;8.90;99.90;;;;;;5029830;28;20049;-87
2022/04/06 09:53:12;;;;;;;;;;;;;;;;;;;;;
2022/04/06 09:55:55;;;;;;;15.48;4.47;;;9.00;99.90;;;;;;5030389;28;20053;-89
2022/04/06 09:58:26;;;;;;;15.45;5.57;;;9.20;99.90;;;;;;5000807;28;20050;-87
2022/04/06 10:01:41;;;;;;;17.75;5.95;;;9.30;99.90;;;;;;4990648;28;20187;-89
2022/04/06 10:04:24;;;;;;;15.32;6.63;;;9.40;99.90;;;;;;4989988;28;20507;-87
2022/04/06 10:07:01;;;;;;;;;;;;;;;;;;;;;
2022/04/06 10:09:35;;;;;;;17.38;6.45;;;9.40;99.90;;;;;;5028217;28;20069;-87
2022/04/06 10:12:14;;;;;;;;;;;;;;;;;;;;;
2022/04/06 10:14:42;;;;;;;16.95;6.75;;;9.40;99.90;;;;;;5030195;28;20065;-85
2022/04/06 10:17:08;;;;;;;15.38;7.57;;;9.40;99.90;;;;;;5029687;28;20084;-86
2022/04/06 10:19:39;;;;;;;19.02;8.07;;;9.40;99.90;;;;;;5029918;28;20495;-86
2022/04/06 10:22:27;;;;;;;21.48;6.70;;;9.30;99.90;;;;;;5012959;28;20053;-87
2022/04/06 10:25:08;;;;;;;19.10;6.53;;;9.20;99.90;;;;;;5030254;28;20045;-90
2022/04/06 10:27:47;;;;;;;15.57;6.65;;;9.20;99.90;;;;;;5009036;28;20419;-87
2022/04/06 10:30:39;;;;;;;17.05;6.78;;;9.30;99.90;;;;;;5011440;28;20049;-87
2022/04/06 10:33:26;;;;;;;16.63;6.65;;;9.20;99.90;;;;;;5013655;28;20052;-89
2022/04/06 10:36:27;;;;;;;;;;;;;;;;;;;;;
2022/04/06 10:39:08;;;;;;;19.25;8.10;;;9.30;99.90;;;;;;5026929;28;20045;-90
2022/04/06 10:41:38;;;;;;;24.17;8.20;;;9.30;99.90;;;;;;5020796;28;20041;-89
2022/04/06 10:44:26;;;;;;;23.17;8.50;;;9.30;99.90;;;;;;5000835;28;20068;-89
2022/04/06 10:47:07;;;;;;;15.25;7.03;;;9.30;99.90;;;;;;5010231;28;20049;-89
2022/04/06 10:49:33;;;;;;;17.83;8.00;;;9.40;99.90;;;;;;5023947;28;20069;-89
2022/04/06 10:52:25;;;;;;;19.63;8.10;;;9.30;99.90;;;;;;5014153;28;20072;-90
2022/04/06 10:55:03;;;;;;;24.73;9.80;;;9.20;99.90;;;;;;5014879;28;20049;-93
2022/04/06 10:57:58;;;;;;;23.97;9.93;;;9.20;99.90;;;;;;4997290;28;20054;-91
2022/04/06 11:00:25;;;;;;;23.23;8.57;;;9.20;99.90;;;;;;5004459;28;20048;-89
2022/04/06 11:03:08;;;;;;;;;;;;;;;;;;;;;
2022/04/06 11:05:52;;;;;;;20.17;9.32;;;9.20;99.90;;;;;;5029806;28;20049;-87
2022/04/06 11:16:19;;;;;;;24.50;10.65;;;9.30;99.90;;;;;;5008515;28;20128;-91
2022/04/06 11:26:38;;;;;;;;;;;;;;;;;;;;;
2022/04/06 11:41:01;;;;;;;;;;;;;;;;;;;;;
2022/04/06 11:44:06;;;;;;;;;;;;;;;;;;;;;
2022/04/06 11:47:12;;;;;;;20.98;11.10;;;9.70;99.90;;;;;;4950159;28;20133;-91
2022/04/06 11:53:24;;;;;;;22.58;10.23;;;10.20;99.90;;;;;;4953417;28;20054;-87
2022/04/06 11:56:43;;;;;;;23.80;11.18;;;10.30;99.90;;;;;;4939432;28;20046;-91
2022/04/06 11:59:55;;;;;;;;;;;;;;;;;;;;;
2022/04/06 12:07:12;;;;;;;;;;;;;;;;;;;;;
2022/04/06 12:21:22;;;;;;;18.00;10.10;;;9.90;99.90;;;;;;4933674;28;20042;-92
2022/04/06 12:24:32;;;;;;;20.45;9.50;;;10.00;99.90;;;;;;4944053;29;20106;-92
2022/04/06 12:27:12;;;;;;;21.80;10.45;;;10.30;99.90;;;;;;4948526;28;20058;-90
2022/04/06 12:30:29;;;;;;;21.63;9.63;;;10.30;99.90;;;;;;4957188;28;20110;-88
2022/04/06 12:33:03;;;;;;;;;;;10.20;99.90;;;;;;4966254;28;20073;-90
2022/04/06 12:36:12;;;;;;;16.80;9.13;;;10.20;99.90;;;;;;4983895;28;19921;-89
2022/04/06 12:45:50;;;;;;;17.55;9.23;;;10.30;99.90;;;;;;5028986;28;20088;-87
2022/04/06 12:48:19;;;;;;;12.27;7.05;;;10.50;99.90;;;;;;4997685;28;20580;-87
2022/04/06 12:50:55;;;;;;;21.15;9.57;;;10.70;99.90;;;;;;5013421;28;20057;-87
2022/04/06 12:53:23;;;;;;;24.70;11.95;;;11.00;99.90;;;;;;5012539;28;20423;-87
2022/04/06 12:56:22;;;;;;;;;;;;;;;;;;;;;
2022/04/06 12:59:50;;;;;;;20.27;11.10;;;11.10;99.90;;;;;;5027978;28;20092;-91
2022/04/06 13:09:47;;;;;;;14.05;7.35;;;11.10;99.90;;;;;;5021304;28;20100;-91
2022/04/06 13:13:03;;;;;;;15.45;8.45;;;11.30;99.90;;;;;;5025236;28;20056;-89
2022/04/06 13:16:12;;;;;;;15.38;8.13;;;11.60;99.90;;;;;;4991956;28;20041;-91
2022/04/06 13:19:30;;;;;;;14.57;6.97;;;11.80;99.90;;;;;;4999074;28;20050;-92
2022/04/06 13:26:11;;;;;;;14.02;7.55;;;11.30;99.90;;;;;;4979196;28;20041;-92
2022/04/06 13:28:39;;;;;;;17.63;8.50;;;11.00;99.90;;;;;;5016711;28;20141;-89
2022/04/06 13:31:10;;;;;;;18.33;7.85;;;10.80;99.90;;;;;;5007374;28;20090;-91
2022/04/06 13:33:44;;;;;;;18.25;10.00;;;10.60;99.90;;;;;;4999430;28;20464;-89
2022/04/06 13:36:12;;;;;;;17.10;9.80;;;10.50;99.90;;;;;;5011791;28;20073;-89
2022/04/06 13:46:30;;;;;;;17.73;9.68;;;10.20;99.90;;;;;;4946600;28;20049;-92
2022/04/06 13:50:11;;;;;;;;;;;;;;;;;;;;;
2022/04/06 13:52:32;;;;;;;22.00;11.88;;;10.00;99.90;;;;;;4954636;28;20042;-90
2022/04/06 13:55:21;;;;;;;26.15;13.50;;;10.00;99.90;;;;;;5004645;28;20058;-90
2022/04/06 13:58:14;;;;;;;21.25;11.95;;;10.00;99.90;;;;;;5006859;28;20049;-91
2022/04/06 14:00:43;;;;;;;19.42;12.02;;;10.00;99.90;;;;;;5012717;28;20037;-92
2022/04/06 14:03:54;;;;;;;;;;;;;;;;;;;;;
2022/04/06 14:06:22;;;;;;;23.33;12.70;;;9.90;99.90;;;;;;4918978;29;20062;-92
2022/04/06 14:09:12;;;;;;;19.88;11.90;;;9.80;99.90;;;;;;4974065;28;20050;-90
2022/04/06 14:12:15;;;;;;;23.05;15.95;;;9.80;99.90;;;;;;5028439;28;20569;-88
2022/04/06 14:15:05;;;;;;;;;;;;;;;;;;;;;
2022/04/06 14:18:14;;;;;;;23.48;13.43;;;9.70;99.90;;;;;;5026099;28;20049;-90
2022/04/06 14:21:14;;;;;;;14.77;9.85;;;9.70;99.90;;;;;;5002133;28;20143;-90
2022/04/06 14:23:52;;;;;;;19.35;9.20;;;9.60;99.90;;;;;;5002703;28;20061;-86
2022/04/06 14:27:03;;;;;;;24.30;10.75;;;9.50;99.90;;;;;;5007666;28;20053;-91
2022/04/06 14:29:42;;;;;;;23.77;11.60;;;9.50;99.90;;;;;;4995214;28;20109;-90
2022/04/06 14:32:41;;;;;;;;;;;;;;;;;;;;;
2022/04/06 14:41:44;;;;;;;11.10;6.47;;;9.40;99.90;;;;;;5019400;28;20049;-90
2022/04/06 14:44:55;;;;;;;12.88;8.57;;;9.60;99.90;;;;;;5013733;28;20045;-91
2022/04/06 14:48:02;;;;;;;;;;;;;;;;;;;;;
2022/04/06 14:50:43;;;;;;;10.02;6.57;;;9.80;99.90;;;;;;5016838;28;20045;-91
2022/04/06 14:54:20;;;;;;;4.68;3.40;;;9.90;99.90;;;;;;5017083;28;20127;-92
2022/04/06 14:57:01;;;;;;;;;;;;;;;;;;;;;
2022/04/06 14:59:52;;;;;;;6.53;4.60;;;9.70;99.90;;;;;;5029473;28;20061;-90
2022/04/06 15:02:47;;;;;;;6.70;4.18;;;9.70;99.90;;;;;;5015305;28;20052;-91
2022/04/06 15:09:10;;;;;;;6.78;4.10;;;9.70;99.90;;;;;;4919399;28;20060;-91
2022/04/06 15:12:19;;;;;;;9.30;4.85;;;9.60;99.90;;;;;;4939040;28;20440;-89
2022/04/06 15:14:48;;;;;;;8.55;5.95;;;9.60;99.90;;;;;;5012322;28;20111;-89
2022/04/06 15:17:22;;;;;;;11.27;5.80;;;9.60;99.90;;;;;;5010916;28;20109;-91
2022/04/06 15:19:51;;;;;;;12.82;7.28;;;9.50;99.90;;;;;;5018666;28;20098;-92
2022/04/06 15:22:18;;;;;;;12.93;6.20;;;9.50;99.90;;;;;;5011424;28;20056;-86
2022/04/06 15:24:44;;;;;;;12.75;8.10;;;9.50;99.90;;;;;;5011132;28;20045;-87
2022/04/06 15:27:10;;;;;;;12.55;8.38;;;9.50;99.90;;;;;;5011220;28;20052;-86
2022/04/06 15:29:36;;;;;;;15.23;9.65;;;9.50;99.90;;;;;;5027447;28;20041;-85
2022/04/06 15:32:02;;;;;;;8.90;6.18;;;9.50;99.90;;;;;;5012098;28;20049;-86
2022/04/06 15:37:18;;;;;;;18.05;9.77;;;9.60;99.90;;;;;;5009189;28;20131;-86
2022/04/06 15:39:54;;;;;;;16.83;10.45;;;9.60;99.90;;;;;;5001214;28;20045;-85
2022/04/06 15:42:24;;;;;;;18.58;11.32;;;9.70;99.90;;;;;;5012959;28;20045;-86
2022/04/06 15:44:54;;;;;;;19.48;12.32;;;9.60;99.90;;;;;;5030455;28;20057;-85
2022/04/06 15:47:21;;;;;;;13.40;11.10;;;9.60;99.90;;;;;;5031611;28;20142;-85
2022/04/06 15:49:48;;;;;;;13.55;9.50;;;9.60;99.90;;;;;;4995881;28;20054;-86